sensor_id;sensor_type;location;lat;lon;timestamp;P1;durP1;ratioP1;P2;durP2;ratioP2
10045;SDS011;5063;50.878;4.742;2024-03-25T00:00:14;8.47;;;5.40;;
10045;SDS011;5063;50.878;4.742;2024-03-25T00:02:40;9.90;;;5.23;;
10045;SDS011;5063;50.878;4.742;2024-03-25T00:05:07;9.43;;;5.47;;
10045;SDS011;5063;50.878;4.742;2024-03-25T00:07:36;8.83;;;4.73;;
10045;SDS011;5063;50.878;4.742;2024-03-25T00:10:03;8.13;;;5.30;;
10045;SDS011;5063;50.878;4.742;2024-03-25T00:12:31;9.63;;;4.83;;
10045;SDS011;5063;50.878;4.742;2024-03-25T00:14:57;8.17;;;4.97;;
10045;SDS011;5063;50.878;4.742;2024-03-25T00:17:23;8.73;;;4.60;;
10045;SDS011;5063;50.878;4.742;2024-03-25T00:19:49;7.70;;;4.80;;
10045;SDS011;5063;50.878;4.742;2024-03-25T00:22:18;9.20;;;4.50;;
10045;SDS011;5063;50.878;4.742;2024-03-25T00:24:44;9.83;;;5.03;;
10045;SDS011;5063;50.878;4.742;2024-03-25T00:27:12;9.03;;;4.53;;
10045;SDS011;5063;50.878;4.742;2024-03-25T00:29:38;6.70;;;4.67;;
10045;SDS011;5063;50.878;4.742;2024-03-25T00:32:04;7.80;;;4.10;;
10045;SDS011;5063;50.878;4.742;2024-03-25T00:34:30;7.73;;;4.70;;
10045;SDS011;5063;50.878;4.742;2024-03-25T00:36:57;6.70;;;4.47;;
10045;SDS011;5063;50.878;4.742;2024-03-25T00:39:23;11.83;;;4.87;;
10045;SDS011;5063;50.878;4.742;2024-03-25T00:41:49;7.37;;;4.40;;
10045;SDS011;5063;50.878;4.742;2024-03-25T00:44:15;5.80;;;4.03;;
10045;SDS011;5063;50.878;4.742;2024-03-25T00:46:41;6.80;;;4.23;;
10045;SDS011;5063;50.878;4.742;2024-03-25T00:49:07;6.80;;;4.17;;
10045;SDS011;5063;50.878;4.742;2024-03-25T00:51:33;8.60;;;3.97;;
10045;SDS011;5063;50.878;4.742;2024-03-25T00:53:59;6.43;;;3.73;;
10045;SDS011;5063;50.878;4.742;2024-03-25T00:56:25;5.13;;;4.03;;
10045;SDS011;5063;50.878;4.742;2024-03-25T00:58:51;11.27;;;4.50;;
10045;SDS011;5063;50.878;4.742;2024-03-25T01:01:18;8.50;;;4.60;;
10045;SDS011;5063;50.878;4.742;2024-03-25T01:03:43;6.23;;;4.10;;
10045;SDS011;5063;50.878;4.742;2024-03-25T01:06:09;5.20;;;4.60;;
10045;SDS011;5063;50.878;4.742;2024-03-25T01:08:35;6.83;;;4.27;;
10045;SDS011;5063;50.878;4.742;2024-03-25T01:11:01;8.17;;;4.73;;
10045;SDS011;5063;50.878;4.742;2024-03-25T01:13:26;6.70;;;3.93;;
10045;SDS011;5063;50.878;4.742;2024-03-25T01:15:52;4.60;;;4.07;;
10045;SDS011;5063;50.878;4.742;2024-03-25T01:18:18;5.80;;;4.23;;
10045;SDS011;5063;50.878;4.742;2024-03-25T01:20:43;9.30;;;3.83;;
10045;SDS011;5063;50.878;4.742;2024-03-25T01:23:12;5.70;;;3.73;;
10045;SDS011;5063;50.878;4.742;2024-03-25T01:25:37;5.77;;;4.13;;
10045;SDS011;5063;50.878;4.742;2024-03-25T01:28:03;7.87;;;4.37;;
10045;SDS011;5063;50.878;4.742;2024-03-25T01:30:29;5.73;;;4.07;;
10045;SDS011;5063;50.878;4.742;2024-03-25T01:32:55;7.70;;;4.73;;
10045;SDS011;5063;50.878;4.742;2024-03-25T01:35:21;7.50;;;4.50;;
10045;SDS011;5063;50.878;4.742;2024-03-25T01:37:47;8.23;;;5.47;;
10045;SDS011;5063;50.878;4.742;2024-03-25T01:40:14;7.87;;;5.10;;
10045;SDS011;5063;50.878;4.742;2024-03-25T01:42:39;5.93;;;4.03;;
10045;SDS011;5063;50.878;4.742;2024-03-25T01:45:06;7.70;;;5.20;;
10045;SDS011;5063;50.878;4.742;2024-03-25T01:47:34;6.93;;;4.83;;
10045;SDS011;5063;50.878;4.742;2024-03-25T01:50:00;6.60;;;4.53;;
10045;SDS011;5063;50.878;4.742;2024-03-25T01:52:28;6.70;;;4.63;;
10045;SDS011;5063;50.878;4.742;2024-03-25T01:54:55;5.93;;;4.30;;
10045;SDS011;5063;50.878;4.742;2024-03-25T01:57:21;6.33;;;4.77;;
10045;SDS011;5063;50.878;4.742;2024-03-25T01:59:47;5.20;;;3.77;;
10045;SDS011;5063;50.878;4.742;2024-03-25T02:02:12;6.13;;;4.60;;
10045;SDS011;5063;50.878;4.742;2024-03-25T02:04:39;7.87;;;4.30;;
10045;SDS011;5063;50.878;4.742;2024-03-25T02:07:07;8.30;;;4.37;;
10045;SDS011;5063;50.878;4.742;2024-03-25T02:09:33;7.50;;;4.63;;
10045;SDS011;5063;50.878;4.742;2024-03-25T02:12:01;5.60;;;4.33;;
10045;SDS011;5063;50.878;4.742;2024-03-25T02:14:27;5.87;;;4.20;;
10045;SDS011;5063;50.878;4.742;2024-03-25T02:16:53;8.53;;;4.20;;
10045;SDS011;5063;50.878;4.742;2024-03-25T02:19:19;7.60;;;4.00;;
10045;SDS011;5063;50.878;4.742;2024-03-25T02:21:48;6.77;;;4.13;;
10045;SDS011;5063;50.878;4.742;2024-03-25T02:24:13;4.43;;;3.73;;
10045;SDS011;5063;50.878;4.742;2024-03-25T02:26:42;7.17;;;3.70;;
10045;SDS011;5063;50.878;4.742;2024-03-25T02:29:11;6.60;;;4.50;;
10045;SDS011;5063;50.878;4.742;2024-03-25T02:31:37;6.43;;;4.23;;
10045;SDS011;5063;50.878;4.742;2024-03-25T02:34:03;5.23;;;3.70;;
10045;SDS011;5063;50.878;4.742;2024-03-25T02:36:28;9.23;;;4.37;;
10045;SDS011;5063;50.878;4.742;2024-03-25T02:38:54;7.97;;;4.80;;
10045;SDS011;5063;50.878;4.742;2024-03-25T02:41:20;7.90;;;3.73;;
10045;SDS011;5063;50.878;4.742;2024-03-25T02:43:47;4.60;;;3.73;;
10045;SDS011;5063;50.878;4.742;2024-03-25T02:46:13;8.10;;;4.63;;
10045;SDS011;5063;50.878;4.742;2024-03-25T02:48:39;8.10;;;4.83;;
10045;SDS011;5063;50.878;4.742;2024-03-25T02:51:05;5.90;;;4.17;;
10045;SDS011;5063;50.878;4.742;2024-03-25T02:53:30;6.47;;;4.37;;
10045;SDS011;5063;50.878;4.742;2024-03-25T02:55:56;10.20;;;4.70;;
10045;SDS011;5063;50.878;4.742;2024-03-25T02:58:22;8.63;;;4.77;;
10045;SDS011;5063;50.878;4.742;2024-03-25T03:00:48;10.33;;;4.73;;
10045;SDS011;5063;50.878;4.742;2024-03-25T03:03:13;9.87;;;5.00;;
10045;SDS011;5063;50.878;4.742;2024-03-25T03:05:39;7.87;;;5.53;;
10045;SDS011;5063;50.878;4.742;2024-03-25T03:08:05;10.77;;;5.33;;
10045;SDS011;5063;50.878;4.742;2024-03-25T03:10:30;8.90;;;5.30;;
10045;SDS011;5063;50.878;4.742;2024-03-25T03:12:56;7.27;;;5.33;;
10045;SDS011;5063;50.878;4.742;2024-03-25T03:15:22;12.30;;;5.43;;
10045;SDS011;5063;50.878;4.742;2024-03-25T03:17:47;10.63;;;5.87;;
10045;SDS011;5063;50.878;4.742;2024-03-25T03:20:13;13.10;;;5.50;;
10045;SDS011;5063;50.878;4.742;2024-03-25T03:22:39;12.30;;;6.00;;
10045;SDS011;5063;50.878;4.742;2024-03-25T03:25:05;12.57;;;5.73;;
10045;SDS011;5063;50.878;4.742;2024-03-25T03:27:31;9.60;;;5.87;;
10045;SDS011;5063;50.878;4.742;2024-03-25T03:29:57;9.03;;;5.93;;
10045;SDS011;5063;50.878;4.742;2024-03-25T03:32:23;15.67;;;6.90;;
10045;SDS011;5063;50.878;4.742;2024-03-25T03:34:49;16.10;;;7.83;;
10045;SDS011;5063;50.878;4.742;2024-03-25T03:37:14;8.70;;;5.70;;
10045;SDS011;5063;50.878;4.742;2024-03-25T03:39:40;9.03;;;6.37;;
10045;SDS011;5063;50.878;4.742;2024-03-25T03:42:06;14.40;;;7.50;;
10045;SDS011;5063;50.878;4.742;2024-03-25T03:44:31;13.87;;;7.50;;
10045;SDS011;5063;50.878;4.742;2024-03-25T03:46:57;12.07;;;6.83;;
10045;SDS011;5063;50.878;4.742;2024-03-25T03:49:23;18.30;;;8.30;;
10045;SDS011;5063;50.878;4.742;2024-03-25T03:51:48;12.97;;;7.63;;
10045;SDS011;5063;50.878;4.742;2024-03-25T03:54:14;16.00;;;6.70;;
10045;SDS011;5063;50.878;4.742;2024-03-25T03:56:40;20.70;;;7.47;;
10045;SDS011;5063;50.878;4.742;2024-03-25T03:59:05;15.13;;;7.57;;
10045;SDS011;5063;50.878;4.742;2024-03-25T04:01:31;14.67;;;7.23;;
10045;SDS011;5063;50.878;4.742;2024-03-25T04:03:58;18.13;;;7.80;;
10045;SDS011;5063;50.878;4.742;2024-03-25T04:06:24;17.47;;;8.43;;
10045;SDS011;5063;50.878;4.742;2024-03-25T04:08:50;16.27;;;7.10;;
10045;SDS011;5063;50.878;4.742;2024-03-25T04:11:15;14.90;;;8.13;;
10045;SDS011;5063;50.878;4.742;2024-03-25T04:13:41;19.73;;;8.97;;
10045;SDS011;5063;50.878;4.742;2024-03-25T04:16:06;17.43;;;8.80;;
10045;SDS011;5063;50.878;4.742;2024-03-25T04:18:32;19.27;;;8.90;;
10045;SDS011;5063;50.878;4.742;2024-03-25T04:20:59;20.50;;;9.80;;
10045;SDS011;5063;50.878;4.742;2024-03-25T04:23:25;17.97;;;9.33;;
10045;SDS011;5063;50.878;4.742;2024-03-25T04:25:51;24.90;;;10.80;;
10045;SDS011;5063;50.878;4.742;2024-03-25T04:28:18;16.17;;;9.47;;
10045;SDS011;5063;50.878;4.742;2024-03-25T04:30:44;21.03;;;9.10;;
10045;SDS011;5063;50.878;4.742;2024-03-25T04:33:15;22.90;;;10.10;;
10045;SDS011;5063;50.878;4.742;2024-03-25T04:35:41;21.90;;;10.03;;
10045;SDS011;5063;50.878;4.742;2024-03-25T04:38:07;16.83;;;9.90;;
10045;SDS011;5063;50.878;4.742;2024-03-25T04:40:35;24.23;;;10.23;;
10045;SDS011;5063;50.878;4.742;2024-03-25T04:43:01;21.20;;;10.57;;
10045;SDS011;5063;50.878;4.742;2024-03-25T04:45:27;19.90;;;9.73;;
10045;SDS011;5063;50.878;4.742;2024-03-25T04:47:53;19.27;;;10.37;;
10045;SDS011;5063;50.878;4.742;2024-03-25T04:50:19;19.53;;;9.90;;
10045;SDS011;5063;50.878;4.742;2024-03-25T04:52:44;21.47;;;10.27;;
10045;SDS011;5063;50.878;4.742;2024-03-25T04:55:10;16.83;;;8.90;;
10045;SDS011;5063;50.878;4.742;2024-03-25T04:57:36;27.43;;;10.17;;
10045;SDS011;5063;50.878;4.742;2024-03-25T05:00:02;31.87;;;11.53;;
10045;SDS011;5063;50.878;4.742;2024-03-25T05:02:28;26.33;;;12.83;;
10045;SDS011;5063;50.878;4.742;2024-03-25T05:04:54;23.03;;;10.93;;
10045;SDS011;5063;50.878;4.742;2024-03-25T05:07:20;20.73;;;11.63;;
10045;SDS011;5063;50.878;4.742;2024-03-25T05:09:45;23.37;;;11.00;;
10045;SDS011;5063;50.878;4.742;2024-03-25T05:12:11;21.63;;;10.97;;
10045;SDS011;5063;50.878;4.742;2024-03-25T05:14:36;22.60;;;11.63;;
10045;SDS011;5063;50.878;4.742;2024-03-25T05:17:02;22.03;;;11.53;;
10045;SDS011;5063;50.878;4.742;2024-03-25T05:19:30;23.27;;;12.27;;
10045;SDS011;5063;50.878;4.742;2024-03-25T05:21:56;27.97;;;11.20;;
10045;SDS011;5063;50.878;4.742;2024-03-25T05:24:22;33.37;;;12.33;;
10045;SDS011;5063;50.878;4.742;2024-03-25T05:26:47;27.67;;;12.90;;
10045;SDS011;5063;50.878;4.742;2024-03-25T05:29:13;30.93;;;12.80;;
10045;SDS011;5063;50.878;4.742;2024-03-25T05:31:39;26.90;;;13.40;;
10045;SDS011;5063;50.878;4.742;2024-03-25T05:34:20;26.47;;;13.07;;
10045;SDS011;5063;50.878;4.742;2024-03-25T05:36:45;29.57;;;13.47;;
10045;SDS011;5063;50.878;4.742;2024-03-25T05:39:11;26.90;;;13.13;;
10045;SDS011;5063;50.878;4.742;2024-03-25T05:41:37;25.57;;;13.20;;
10045;SDS011;5063;50.878;4.742;2024-03-25T05:44:02;36.40;;;13.90;;
10045;SDS011;5063;50.878;4.742;2024-03-25T05:46:28;23.90;;;12.60;;
10045;SDS011;5063;50.878;4.742;2024-03-25T05:48:54;34.13;;;14.73;;
10045;SDS011;5063;50.878;4.742;2024-03-25T05:51:20;35.47;;;13.00;;
10045;SDS011;5063;50.878;4.742;2024-03-25T05:53:45;37.60;;;15.90;;
10045;SDS011;5063;50.878;4.742;2024-03-25T05:56:11;29.83;;;13.57;;
10045;SDS011;5063;50.878;4.742;2024-03-25T05:58:37;39.97;;;16.77;;
10045;SDS011;5063;50.878;4.742;2024-03-25T06:01:02;32.30;;;14.83;;
10045;SDS011;5063;50.878;4.742;2024-03-25T06:03:29;34.47;;;14.57;;
10045;SDS011;5063;50.878;4.742;2024-03-25T06:05:55;35.23;;;15.73;;
10045;SDS011;5063;50.878;4.742;2024-03-25T06:08:21;34.77;;;16.03;;
10045;SDS011;5063;50.878;4.742;2024-03-25T06:10:52;37.53;;;14.80;;
10045;SDS011;5063;50.878;4.742;2024-03-25T06:13:18;33.70;;;15.90;;
10045;SDS011;5063;50.878;4.742;2024-03-25T06:15:45;32.07;;;15.13;;
10045;SDS011;5063;50.878;4.742;2024-03-25T06:18:11;34.40;;;15.77;;
10045;SDS011;5063;50.878;4.742;2024-03-25T06:20:37;47.00;;;15.97;;
10045;SDS011;5063;50.878;4.742;2024-03-25T06:23:03;37.77;;;15.03;;
10045;SDS011;5063;50.878;4.742;2024-03-25T06:25:29;41.03;;;15.40;;
10045;SDS011;5063;50.878;4.742;2024-03-25T06:27:55;33.90;;;15.03;;
10045;SDS011;5063;50.878;4.742;2024-03-25T06:30:21;41.67;;;15.57;;
10045;SDS011;5063;50.878;4.742;2024-03-25T06:33:05;39.70;;;15.50;;
10045;SDS011;5063;50.878;4.742;2024-03-25T06:35:50;40.90;;;15.60;;
10045;SDS011;5063;50.878;4.742;2024-03-25T06:38:17;35.77;;;16.10;;
10045;SDS011;5063;50.878;4.742;2024-03-25T06:40:44;41.30;;;15.03;;
10045;SDS011;5063;50.878;4.742;2024-03-25T06:43:10;33.77;;;14.93;;
10045;SDS011;5063;50.878;4.742;2024-03-25T06:45:36;34.20;;;14.80;;
10045;SDS011;5063;50.878;4.742;2024-03-25T06:48:02;36.17;;;14.80;;
10045;SDS011;5063;50.878;4.742;2024-03-25T06:50:28;37.70;;;15.20;;
10045;SDS011;5063;50.878;4.742;2024-03-25T06:52:54;38.97;;;15.60;;
10045;SDS011;5063;50.878;4.742;2024-03-25T06:55:20;40.40;;;14.63;;
10045;SDS011;5063;50.878;4.742;2024-03-25T06:57:50;27.13;;;14.47;;
10045;SDS011;5063;50.878;4.742;2024-03-25T07:00:16;30.30;;;13.60;;
10045;SDS011;5063;50.878;4.742;2024-03-25T07:02:42;24.87;;;12.03;;
10045;SDS011;5063;50.878;4.742;2024-03-25T07:05:08;29.80;;;13.30;;
10045;SDS011;5063;50.878;4.742;2024-03-25T07:07:33;22.67;;;11.57;;
10045;SDS011;5063;50.878;4.742;2024-03-25T07:10:00;32.87;;;12.97;;
10045;SDS011;5063;50.878;4.742;2024-03-25T07:12:26;23.13;;;12.17;;
10045;SDS011;5063;50.878;4.742;2024-03-25T07:14:51;31.93;;;13.17;;
10045;SDS011;5063;50.878;4.742;2024-03-25T07:17:17;28.17;;;12.63;;
10045;SDS011;5063;50.878;4.742;2024-03-25T07:19:43;25.03;;;12.77;;
10045;SDS011;5063;50.878;4.742;2024-03-25T07:22:10;26.30;;;12.53;;
10045;SDS011;5063;50.878;4.742;2024-03-25T07:24:36;24.40;;;12.10;;
10045;SDS011;5063;50.878;4.742;2024-03-25T07:27:01;27.20;;;11.57;;
10045;SDS011;5063;50.878;4.742;2024-03-25T07:29:27;28.60;;;11.40;;
10045;SDS011;5063;50.878;4.742;2024-03-25T07:31:53;23.47;;;10.03;;
10045;SDS011;5063;50.878;4.742;2024-03-25T07:34:19;19.57;;;10.23;;
10045;SDS011;5063;50.878;4.742;2024-03-25T07:36:44;19.73;;;9.70;;
10045;SDS011;5063;50.878;4.742;2024-03-25T07:39:10;24.40;;;9.27;;
10045;SDS011;5063;50.878;4.742;2024-03-25T07:41:36;19.17;;;8.17;;
10045;SDS011;5063;50.878;4.742;2024-03-25T07:44:02;16.30;;;7.73;;
10045;SDS011;5063;50.878;4.742;2024-03-25T07:46:29;20.17;;;7.60;;
10045;SDS011;5063;50.878;4.742;2024-03-25T07:48:55;14.63;;;7.43;;
10045;SDS011;5063;50.878;4.742;2024-03-25T07:51:21;16.17;;;8.07;;
10045;SDS011;5063;50.878;4.742;2024-03-25T07:53:47;14.40;;;7.03;;
10045;SDS011;5063;50.878;4.742;2024-03-25T07:56:12;13.27;;;7.07;;
10045;SDS011;5063;50.878;4.742;2024-03-25T07:58:40;11.43;;;6.23;;
10045;SDS011;5063;50.878;4.742;2024-03-25T08:01:06;20.97;;;7.37;;
10045;SDS011;5063;50.878;4.742;2024-03-25T08:03:32;16.67;;;6.43;;
10045;SDS011;5063;50.878;4.742;2024-03-25T08:05:58;10.20;;;5.63;;
10045;SDS011;5063;50.878;4.742;2024-03-25T08:08:24;9.30;;;5.50;;
10045;SDS011;5063;50.878;4.742;2024-03-25T08:10:50;14.73;;;6.40;;
10045;SDS011;5063;50.878;4.742;2024-03-25T08:13:17;9.57;;;5.40;;
10045;SDS011;5063;50.878;4.742;2024-03-25T08:15:45;12.07;;;5.90;;
10045;SDS011;5063;50.878;4.742;2024-03-25T08:18:11;12.77;;;5.40;;
10045;SDS011;5063;50.878;4.742;2024-03-25T08:20:37;10.67;;;5.57;;
10045;SDS011;5063;50.878;4.742;2024-03-25T08:23:03;15.47;;;5.67;;
10045;SDS011;5063;50.878;4.742;2024-03-25T08:25:29;10.00;;;5.43;;
10045;SDS011;5063;50.878;4.742;2024-03-25T08:27:54;13.93;;;5.93;;
10045;SDS011;5063;50.878;4.742;2024-03-25T08:30:20;14.57;;;5.90;;
10045;SDS011;5063;50.878;4.742;2024-03-25T08:32:46;8.57;;;5.37;;
10045;SDS011;5063;50.878;4.742;2024-03-25T08:35:11;13.07;;;4.93;;
10045;SDS011;5063;50.878;4.742;2024-03-25T08:37:38;10.63;;;5.13;;
10045;SDS011;5063;50.878;4.742;2024-03-25T08:40:04;11.73;;;5.33;;
10045;SDS011;5063;50.878;4.742;2024-03-25T08:42:30;14.37;;;5.37;;
10045;SDS011;5063;50.878;4.742;2024-03-25T08:44:55;11.10;;;4.33;;
10045;SDS011;5063;50.878;4.742;2024-03-25T08:47:22;9.03;;;4.97;;
10045;SDS011;5063;50.878;4.742;2024-03-25T08:49:47;9.87;;;5.00;;
10045;SDS011;5063;50.878;4.742;2024-03-25T08:52:13;11.10;;;5.30;;
10045;SDS011;5063;50.878;4.742;2024-03-25T08:54:38;10.53;;;5.30;;
10045;SDS011;5063;50.878;4.742;2024-03-25T08:57:04;9.30;;;4.37;;
10045;SDS011;5063;50.878;4.742;2024-03-25T08:59:30;11.67;;;5.07;;
10045;SDS011;5063;50.878;4.742;2024-03-25T09:01:55;7.73;;;4.50;;
10045;SDS011;5063;50.878;4.742;2024-03-25T09:04:21;9.07;;;4.60;;
10045;SDS011;5063;50.878;4.742;2024-03-25T09:06:47;5.87;;;4.73;;
10045;SDS011;5063;50.878;4.742;2024-03-25T09:09:13;11.57;;;4.80;;
10045;SDS011;5063;50.878;4.742;2024-03-25T09:11:57;7.57;;;4.83;;
10045;SDS011;5063;50.878;4.742;2024-03-25T09:14:24;9.67;;;5.27;;
10045;SDS011;5063;50.878;4.742;2024-03-25T09:16:49;13.93;;;5.13;;
10045;SDS011;5063;50.878;4.742;2024-03-25T09:19:15;9.80;;;4.83;;
10045;SDS011;5063;50.878;4.742;2024-03-25T09:21:41;12.80;;;5.30;;
10045;SDS011;5063;50.878;4.742;2024-03-25T09:24:06;10.67;;;5.07;;
10045;SDS011;5063;50.878;4.742;2024-03-25T09:26:33;13.47;;;4.73;;
10045;SDS011;5063;50.878;4.742;2024-03-25T09:28:58;5.93;;;4.03;;
10045;SDS011;5063;50.878;4.742;2024-03-25T09:31:24;8.93;;;5.03;;
10045;SDS011;5063;50.878;4.742;2024-03-25T09:33:50;10.60;;;5.53;;
10045;SDS011;5063;50.878;4.742;2024-03-25T09:36:15;13.90;;;4.83;;
10045;SDS011;5063;50.878;4.742;2024-03-25T09:38:41;9.20;;;4.50;;
10045;SDS011;5063;50.878;4.742;2024-03-25T09:41:08;10.03;;;4.80;;
10045;SDS011;5063;50.878;4.742;2024-03-25T09:46:12;14.73;;;4.93;;
10045;SDS011;5063;50.878;4.742;2024-03-25T09:48:38;11.00;;;4.43;;
10045;SDS011;5063;50.878;4.742;2024-03-25T09:51:06;7.10;;;4.83;;
10045;SDS011;5063;50.878;4.742;2024-03-25T09:53:34;11.57;;;4.63;;
10045;SDS011;5063;50.878;4.742;2024-03-25T09:56:00;9.40;;;4.83;;
10045;SDS011;5063;50.878;4.742;2024-03-25T09:58:26;7.27;;;3.93;;
10045;SDS011;5063;50.878;4.742;2024-03-25T10:00:52;12.43;;;3.50;;
10045;SDS011;5063;50.878;4.742;2024-03-25T10:03:20;9.20;;;4.30;;
10045;SDS011;5063;50.878;4.742;2024-03-25T10:05:46;5.30;;;3.33;;
10045;SDS011;5063;50.878;4.742;2024-03-25T10:08:12;5.63;;;3.87;;
10045;SDS011;5063;50.878;4.742;2024-03-25T10:10:37;8.90;;;3.50;;
10045;SDS011;5063;50.878;4.742;2024-03-25T10:13:03;9.77;;;4.03;;
10045;SDS011;5063;50.878;4.742;2024-03-25T10:15:30;7.83;;;4.33;;
10045;SDS011;5063;50.878;4.742;2024-03-25T10:17:57;12.47;;;4.17;;
10045;SDS011;5063;50.878;4.742;2024-03-25T10:20:22;9.27;;;4.00;;
10045;SDS011;5063;50.878;4.742;2024-03-25T10:22:49;5.53;;;3.97;;
10045;SDS011;5063;50.878;4.742;2024-03-25T10:25:21;11.27;;;4.47;;
10045;SDS011;5063;50.878;4.742;2024-03-25T10:28:00;8.67;;;3.87;;
10045;SDS011;5063;50.878;4.742;2024-03-25T10:30:26;7.13;;;4.17;;
10045;SDS011;5063;50.878;4.742;2024-03-25T10:33:06;5.50;;;3.50;;
10045;SDS011;5063;50.878;4.742;2024-03-25T10:35:33;10.73;;;3.93;;
10045;SDS011;5063;50.878;4.742;2024-03-25T10:38:01;10.67;;;4.27;;
10045;SDS011;5063;50.878;4.742;2024-03-25T10:40:29;14.50;;;4.37;;
10045;SDS011;5063;50.878;4.742;2024-03-25T10:43:06;9.30;;;3.70;;
10045;SDS011;5063;50.878;4.742;2024-03-25T10:45:42;7.97;;;3.93;;
10045;SDS011;5063;50.878;4.742;2024-03-25T10:48:20;8.33;;;3.10;;
10045;SDS011;5063;50.878;4.742;2024-03-25T10:50:53;5.27;;;3.20;;
10045;SDS011;5063;50.878;4.742;2024-03-25T10:53:23;8.03;;;3.07;;
10045;SDS011;5063;50.878;4.742;2024-03-25T10:55:50;5.73;;;2.90;;
10045;SDS011;5063;50.878;4.742;2024-03-25T10:58:18;8.90;;;4.00;;
10045;SDS011;5063;50.878;4.742;2024-03-25T11:00:46;6.23;;;3.17;;
10045;SDS011;5063;50.878;4.742;2024-03-25T11:03:13;8.10;;;3.43;;
10045;SDS011;5063;50.878;4.742;2024-03-25T11:05:39;5.83;;;3.07;;
10045;SDS011;5063;50.878;4.742;2024-03-25T11:08:15;5.13;;;2.40;;
10045;SDS011;5063;50.878;4.742;2024-03-25T11:10:45;5.50;;;2.30;;
10045;SDS011;5063;50.878;4.742;2024-03-25T11:13:12;6.80;;;2.77;;
10045;SDS011;5063;50.878;4.742;2024-03-25T11:15:45;5.30;;;2.97;;
10045;SDS011;5063;50.878;4.742;2024-03-25T11:18:12;10.37;;;2.80;;
10045;SDS011;5063;50.878;4.742;2024-03-25T11:20:39;3.80;;;2.30;;
10045;SDS011;5063;50.878;4.742;2024-03-25T11:23:11;5.63;;;2.80;;
10045;SDS011;5063;50.878;4.742;2024-03-25T11:25:38;6.60;;;3.20;;
10045;SDS011;5063;50.878;4.742;2024-03-25T11:28:06;5.67;;;2.80;;
10045;SDS011;5063;50.878;4.742;2024-03-25T11:30:33;5.23;;;2.30;;
10045;SDS011;5063;50.878;4.742;2024-03-25T11:33:01;7.57;;;2.87;;
10045;SDS011;5063;50.878;4.742;2024-03-25T11:35:29;5.33;;;2.50;;
10045;SDS011;5063;50.878;4.742;2024-03-25T11:37:55;3.80;;;2.40;;
10045;SDS011;5063;50.878;4.742;2024-03-25T11:40:21;3.43;;;2.57;;
10045;SDS011;5063;50.878;4.742;2024-03-25T11:42:47;5.33;;;2.67;;
10045;SDS011;5063;50.878;4.742;2024-03-25T11:45:13;4.83;;;2.30;;
10045;SDS011;5063;50.878;4.742;2024-03-25T11:47:41;8.03;;;2.63;;
10045;SDS011;5063;50.878;4.742;2024-03-25T11:50:08;5.60;;;2.57;;
10045;SDS011;5063;50.878;4.742;2024-03-25T11:52:36;3.47;;;2.60;;
10045;SDS011;5063;50.878;4.742;2024-03-25T11:55:02;2.30;;;2.10;;
10045;SDS011;5063;50.878;4.742;2024-03-25T11:57:29;3.50;;;2.27;;
10045;SDS011;5063;50.878;4.742;2024-03-25T11:59:55;6.17;;;2.23;;
10045;SDS011;5063;50.878;4.742;2024-03-25T12:02:22;5.13;;;2.60;;
10045;SDS011;5063;50.878;4.742;2024-03-25T12:04:48;5.63;;;2.40;;
10045;SDS011;5063;50.878;4.742;2024-03-25T12:07:14;4.00;;;2.20;;
10045;SDS011;5063;50.878;4.742;2024-03-25T12:09:40;3.27;;;2.30;;
10045;SDS011;5063;50.878;4.742;2024-03-25T12:12:25;4.13;;;2.50;;
10045;SDS011;5063;50.878;4.742;2024-03-25T12:14:51;3.13;;;2.03;;
10045;SDS011;5063;50.878;4.742;2024-03-25T12:17:18;3.23;;;2.30;;
10045;SDS011;5063;50.878;4.742;2024-03-25T12:19:57;5.70;;;2.20;;
10045;SDS011;5063;50.878;4.742;2024-03-25T12:22:29;4.30;;;2.33;;
10045;SDS011;5063;50.878;4.742;2024-03-25T12:25:05;3.93;;;2.30;;
10045;SDS011;5063;50.878;4.742;2024-03-25T12:27:33;5.47;;;2.53;;
10045;SDS011;5063;50.878;4.742;2024-03-25T12:35:14;5.60;;;2.37;;
10045;SDS011;5063;50.878;4.742;2024-03-25T12:37:42;3.67;;;2.33;;
10045;SDS011;5063;50.878;4.742;2024-03-25T12:40:10;5.67;;;2.70;;
10045;SDS011;5063;50.878;4.742;2024-03-25T12:42:38;5.93;;;2.67;;
10045;SDS011;5063;50.878;4.742;2024-03-25T12:45:05;6.33;;;2.33;;
10045;SDS011;5063;50.878;4.742;2024-03-25T12:47:31;3.53;;;2.13;;
10045;SDS011;5063;50.878;4.742;2024-03-25T12:49:57;2.37;;;2.17;;
10045;SDS011;5063;50.878;4.742;2024-03-25T12:52:23;4.43;;;2.40;;
10045;SDS011;5063;50.878;4.742;2024-03-25T12:54:49;4.60;;;2.20;;
10045;SDS011;5063;50.878;4.742;2024-03-25T12:57:15;4.17;;;2.33;;
10045;SDS011;5063;50.878;4.742;2024-03-25T12:59:40;4.40;;;2.10;;
10045;SDS011;5063;50.878;4.742;2024-03-25T13:02:10;3.83;;;2.23;;
10045;SDS011;5063;50.878;4.742;2024-03-25T13:04:38;4.73;;;2.77;;
10045;SDS011;5063;50.878;4.742;2024-03-25T13:07:05;4.43;;;2.50;;
10045;SDS011;5063;50.878;4.742;2024-03-25T13:09:31;3.90;;;2.33;;
10045;SDS011;5063;50.878;4.742;2024-03-25T13:11:57;4.87;;;2.70;;
10045;SDS011;5063;50.878;4.742;2024-03-25T13:14:23;6.10;;;2.80;;
10045;SDS011;5063;50.878;4.742;2024-03-25T13:16:49;5.47;;;2.50;;
10045;SDS011;5063;50.878;4.742;2024-03-25T13:19:15;2.53;;;2.27;;
10045;SDS011;5063;50.878;4.742;2024-03-25T13:21:41;4.37;;;2.33;;
10045;SDS011;5063;50.878;4.742;2024-03-25T13:24:07;3.70;;;2.03;;
10045;SDS011;5063;50.878;4.742;2024-03-25T13:26:33;6.43;;;2.50;;
10045;SDS011;5063;50.878;4.742;2024-03-25T13:28:59;3.43;;;2.07;;
10045;SDS011;5063;50.878;4.742;2024-03-25T13:31:25;7.53;;;2.40;;
10045;SDS011;5063;50.878;4.742;2024-03-25T13:33:51;4.27;;;2.60;;
10045;SDS011;5063;50.878;4.742;2024-03-25T13:36:16;3.00;;;2.00;;
10045;SDS011;5063;50.878;4.742;2024-03-25T13:38:43;9.17;;;2.43;;
10045;SDS011;5063;50.878;4.742;2024-03-25T13:41:08;2.30;;;2.10;;
10045;SDS011;5063;50.878;4.742;2024-03-25T13:43:43;4.20;;;1.90;;
10045;SDS011;5063;50.878;4.742;2024-03-25T13:46:09;2.67;;;2.10;;
10045;SDS011;5063;50.878;4.742;2024-03-25T13:48:37;4.30;;;2.17;;
10045;SDS011;5063;50.878;4.742;2024-03-25T13:51:03;4.73;;;2.60;;
10045;SDS011;5063;50.878;4.742;2024-03-25T13:53:29;3.93;;;2.50;;
10045;SDS011;5063;50.878;4.742;2024-03-25T13:55:54;3.60;;;1.90;;
10045;SDS011;5063;50.878;4.742;2024-03-25T13:58:20;4.63;;;2.00;;
10045;SDS011;5063;50.878;4.742;2024-03-25T14:00:46;2.43;;;1.90;;
10045;SDS011;5063;50.878;4.742;2024-03-25T14:03:11;5.03;;;1.97;;
10045;SDS011;5063;50.878;4.742;2024-03-25T14:05:38;2.73;;;2.13;;
10045;SDS011;5063;50.878;4.742;2024-03-25T14:08:04;2.27;;;1.70;;
10045;SDS011;5063;50.878;4.742;2024-03-25T14:10:30;3.10;;;1.77;;
10045;SDS011;5063;50.878;4.742;2024-03-25T14:12:56;3.90;;;2.00;;
10045;SDS011;5063;50.878;4.742;2024-03-25T14:15:22;2.37;;;1.40;;
10045;SDS011;5063;50.878;4.742;2024-03-25T14:17:47;8.20;;;1.80;;
10045;SDS011;5063;50.878;4.742;2024-03-25T14:20:13;2.50;;;1.90;;
10045;SDS011;5063;50.878;4.742;2024-03-25T14:22:39;3.43;;;1.93;;
10045;SDS011;5063;50.878;4.742;2024-03-25T14:25:05;3.07;;;1.73;;
10045;SDS011;5063;50.878;4.742;2024-03-25T14:27:31;2.73;;;1.90;;
10045;SDS011;5063;50.878;4.742;2024-03-25T14:29:57;4.43;;;1.80;;
10045;SDS011;5063;50.878;4.742;2024-03-25T14:32:23;3.00;;;2.00;;
10045;SDS011;5063;50.878;4.742;2024-03-25T14:34:49;3.90;;;2.27;;
10045;SDS011;5063;50.878;4.742;2024-03-25T14:37:15;2.47;;;1.90;;
10045;SDS011;5063;50.878;4.742;2024-03-25T14:39:41;2.20;;;1.70;;
10045;SDS011;5063;50.878;4.742;2024-03-25T14:42:07;1.97;;;1.77;;
10045;SDS011;5063;50.878;4.742;2024-03-25T14:44:35;2.13;;;1.77;;
10045;SDS011;5063;50.878;4.742;2024-03-25T14:47:02;2.50;;;1.70;;
10045;SDS011;5063;50.878;4.742;2024-03-25T14:49:28;2.80;;;1.50;;
10045;SDS011;5063;50.878;4.742;2024-03-25T14:51:54;3.50;;;1.70;;
10045;SDS011;5063;50.878;4.742;2024-03-25T14:54:20;2.10;;;1.57;;
10045;SDS011;5063;50.878;4.742;2024-03-25T14:56:46;2.03;;;1.67;;